^^
Saratoga-Weather Station Historical Data
Daily Summary for August 6, 2021 Units:  English    Metric   Both
Daily Weekly Monthly Yearly Custom
  High: Low: Average:
Temperature: 38.5 °F 32.5 °F 35.2 °F
Dew Point: 36.7 °F 31.8 °F 34.3 °F
Humidity: 97% 92% 96%
Wind Speed: 4mph 0mph 0.3mph
Wind Gust: 7mph - -
Wind- - South
Pressure: 30 in 29.8 in -
Precipitation: 0.01 in    
Historical Graphs
 
 
Tabular Data for August 6, 2021
Time Temperature Dew Point Pressure Wind Wind Speed Wind Gust Humidity Rainfall Rate (Hourly) solar
00:01 34.5 °F 33.4 °F 29.8 in Calm     96% 0 in 0 W/m2
00:06 34.5 °F 33.4 °F 29.8 in Calm     96% 0 in 0 W/m2
00:11 34.5 °F 33.4 °F 29.8 in Calm     96% 0 in 0 W/m2
00:16 34.5 °F 33.4 °F 29.8 in Calm     96% 0 in 0 W/m2
00:21 34.7 °F 33.6 °F 29.8 in Calm     96% 0 in 0 W/m2
00:26 34.7 °F 34 °F 29.8 in Calm     97% 0 in 0 W/m2
00:31 34.9 °F 34.2 °F 29.8 in Calm     97% 0 in 0 W/m2
00:36 34.9 °F 34.2 °F 29.8 in Calm     97% 0 in 0 W/m2
00:41 34.9 °F 34.2 °F 29.8 in Calm     97% 0 in 0 W/m2
00:46 34.9 °F 34.2 °F 29.8 in Calm     97% 0 in 0 W/m2
00:51 34.9 °F 34.2 °F 29.8 in Calm     97% 0 in 0 W/m2
00:56 34.9 °F 34.2 °F 29.8 in Calm     97% 0 in 0 W/m2
01:01 34.7 °F 34 °F 29.8 in Calm   1 mph 97% 0 in 0 W/m2
01:06 34.5 °F 33.4 °F 29.8 in Calm     96% 0 in 0 W/m2
01:11 34.5 °F 33.4 °F 29.8 in Calm     96% 0 in 0 W/m2
01:16 34.5 °F 33.4 °F 29.8 in Calm     96% 0 in 0 W/m2
01:21 34.5 °F 33.4 °F 29.8 in Calm     96% 0 in 0 W/m2
01:26 34.5 °F 33.4 °F 29.8 in Calm     96% 0.01 in 0 W/m2
01:31 34.5 °F 33.4 °F 29.8 in Calm     96% 0.01 in 0 W/m2
01:36 34.5 °F 33.4 °F 29.8 in Calm     96% 0.01 in 0 W/m2
01:41 34.5 °F 33.4 °F 29.8 in Calm     96% 0.01 in 0 W/m2
01:46 34.7 °F 34 °F 29.8 in Calm     97% 0.01 in 0 W/m2
01:52 34.9 °F 33.8 °F 29.8 in Calm     96% 0.01 in 0 W/m2
01:57 34.9 °F 34.2 °F 29.8 in Calm     97% 0.01 in 0 W/m2
02:02 34.9 °F 34.2 °F 29.8 in Calm     97% 0.01 in 0 W/m2
02:07 34.9 °F 34.2 °F 29.8 in Calm     97% 0.01 in 0 W/m2
02:12 35.1 °F 34.3 °F 29.8 in Calm     97% 0.01 in 0 W/m2
02:17 35.1 °F 34.3 °F 29.8 in Calm     97% 0.01 in 0 W/m2
02:22 35.1 °F 34.3 °F 29.8 in Calm     97% 0.01 in 0 W/m2
02:27 35.1 °F 34.3 °F 29.9 in Calm     97% 0 in 0 W/m2
02:32 35.1 °F 34.3 °F 29.9 in Calm     97% 0 in 0 W/m2
02:37 35.1 °F 34.3 °F 29.9 in Calm     97% 0 in 0 W/m2
02:42 35.1 °F 34.3 °F 29.9 in Calm     97% 0 in 0 W/m2
02:47 35.1 °F 34.3 °F 29.9 in Calm     97% 0 in 0 W/m2
02:52 35.2 °F 34.5 °F 29.9 in Calm     97% 0 in 0 W/m2
02:57 35.2 °F 34.5 °F 29.9 in Calm     97% 0 in 0 W/m2
03:02 35.2 °F 34.5 °F 29.9 in Calm     97% 0 in 0 W/m2
03:07 35.2 °F 34.5 °F 29.9 in Calm     97% 0 in 0 W/m2
03:12 35.2 °F 34.5 °F 29.9 in Calm     97% 0 in 0 W/m2
03:17 35.2 °F 34.5 °F 29.9 in Calm     97% 0 in 0 W/m2
03:22 35.2 °F 34.5 °F 29.9 in Calm     97% 0 in 0 W/m2
03:27 35.2 °F 34.5 °F 29.9 in Calm     97% 0 in 0 W/m2
03:32 35.4 °F 34.7 °F 29.9 in Calm     97% 0 in 0 W/m2
03:37 35.4 °F 34.7 °F 29.9 in Calm     97% 0 in 0 W/m2
03:42 35.4 °F 34.7 °F 29.9 in Calm     97% 0 in 0 W/m2
03:47 35.4 °F 34.7 °F 29.9 in Calm     97% 0 in 0 W/m2
03:52 35.4 °F 34.7 °F 29.9 in Calm     97% 0 in 0 W/m2
03:57 35.4 °F 34.7 °F 29.9 in Calm     97% 0 in 0 W/m2
04:02 35.4 °F 34.7 °F 29.9 in Calm     97% 0 in 0 W/m2
04:07 35.4 °F 34.7 °F 29.9 in Calm     97% 0 in 0 W/m2
04:12 35.4 °F 34.7 °F 29.9 in Calm     97% 0 in 0 W/m2
04:17 35.4 °F 34.7 °F 29.9 in Calm     97% 0 in 0 W/m2
04:22 35.4 °F 34.7 °F 29.9 in Calm     97% 0 in 0 W/m2
04:27 35.6 °F 34.9 °F 29.9 in Calm     97% 0 in 0 W/m2
04:32 35.6 °F 34.9 °F 29.9 in Calm     97% 0 in 0 W/m2
04:37 35.6 °F 34.9 °F 29.9 in Calm     97% 0 in 0 W/m2
04:42 35.6 °F 34.9 °F 29.9 in Calm     97% 0 in 0 W/m2
04:47 35.8 °F 35.1 °F 29.9 in Calm     97% 0 in 0 W/m2
04:52 35.8 °F 35.1 °F 29.9 in Calm     97% 0 in 0 W/m2
04:57 35.8 °F 35.1 °F 29.9 in Calm     97% 0 in 0 W/m2
05:02 35.8 °F 35.1 °F 29.9 in Calm     97% 0 in 0 W/m2
05:07 35.8 °F 35.1 °F 29.9 in Calm     97% 0 in 0 W/m2
05:12 35.8 °F 35.1 °F 29.9 in Calm     97% 0 in 0 W/m2
05:17 35.8 °F 35.1 °F 29.9 in Calm     97% 0 in 0 W/m2
05:22 36 °F 35.2 °F 29.9 in Calm     97% 0 in 0 W/m2
05:27 36 °F 35.2 °F 29.9 in Calm     97% 0 in 0 W/m2
05:32 36 °F 35.2 °F 29.9 in Calm     97% 0 in 0 W/m2
05:37 36 °F 35.2 °F 29.9 in Calm     97% 0 in 0 W/m2
05:42 36 °F 35.2 °F 29.9 in Calm     97% 0 in 0 W/m2
05:47 35.8 °F 35.1 °F 29.9 in Calm     97% 0 in 0 W/m2
05:52 36 °F 35.2 °F 29.9 in Calm     97% 0 in 0 W/m2
05:57 35.8 °F 35.1 °F 29.9 in Calm     97% 0 in 0 W/m2
06:02 35.8 °F 35.1 °F 29.9 in Calm     97% 0 in 0 W/m2
06:07 35.8 °F 35.1 °F 29.9 in Calm     97% 0 in 0 W/m2
06:12 35.8 °F 35.1 °F 29.9 in Calm     97% 0 in 0 W/m2
06:17 35.8 °F 35.1 °F 29.9 in Calm     97% 0 in 0 W/m2
06:22 35.4 °F 34.7 °F 29.9 in Calm     97% 0 in 0 W/m2
06:27 35.4 °F 34.7 °F 29.9 in Calm     97% 0 in 0 W/m2
06:32 35.2 °F 34.5 °F 29.9 in Calm     97% 0 in 0 W/m2
06:37 35.2 °F 34.5 °F 29.9 in Calm     97% 0 in 0 W/m2
06:42 35.1 °F 34.3 °F 29.9 in Calm     97% 0 in 0 W/m2
06:47 35.1 °F 34.3 °F 29.9 in Calm     97% 0 in 0 W/m2
06:52 34.9 °F 34.2 °F 29.9 in Calm     97% 0 in 0 W/m2
06:57 34.9 °F 33.8 °F 29.9 in Calm     96% 0 in 0 W/m2
07:02 34.5 °F 33.4 °F 29.9 in Calm     96% 0 in 0 W/m2
07:07 34.3 °F 33.3 °F 29.9 in Calm     96% 0 in 0 W/m2
07:13 34.2 °F 33.1 °F 29.9 in Calm     96% 0 in 0 W/m2
07:18 34 °F 32.9 °F 29.9 in Calm     96% 0 in 0 W/m2
07:23 33.6 °F 32.5 °F 29.9 in Calm     96% 0 in 0 W/m2
07:28 33.6 °F 32.5 °F 30 in Calm     96% 0 in 0 W/m2
07:33 33.6 °F 32.9 °F 30 in Calm     97% 0 in 0 W/m2
07:38 33.4 °F 32.4 °F 30 in Calm     96% 0 in 0 W/m2
07:43 33.4 °F 32.4 °F 30 in Calm     96% 0 in 0 W/m2
07:48 33.3 °F 32.2 °F 30 in Calm     96% 0 in 0 W/m2
07:53 33.3 °F 32.5 °F 30 in Calm     97% 0 in 0 W/m2
07:58 33.3 °F 32.5 °F 29.9 in Calm     97% 0 in 0 W/m2
08:03 33.3 °F 32.5 °F 30 in Calm     97% 0 in 0 W/m2
08:08 33.1 °F 32.4 °F 29.9 in Calm     97% 0 in 0 W/m2
08:13 33.3 °F 32.5 °F 30 in Calm     97% 0 in 0 W/m2
08:18 33.1 °F 32.4 °F 30 in Calm     97% 0 in 0 W/m2
08:23 33.1 °F 32.4 °F 30 in Calm     97% 0 in 5 W/m2
08:28 33.1 °F 32.4 °F 30 in Calm     97% 0 in 7 W/m2
08:33 33.1 °F 32.4 °F 30 in Calm     97% 0 in 11 W/m2
08:38 33.1 °F 32.4 °F 30 in Calm     97% 0 in 11 W/m2
08:43 32.7 °F 32 °F 30 in Calm     97% 0 in 14 W/m2
08:48 32.7 °F 32 °F 30 in Calm     97% 0 in 19 W/m2
08:53 32.7 °F 32 °F 30 in Calm     97% 0 in 18 W/m2
08:58 32.5 °F 31.8 °F 30 in Calm     97% 0 in 21 W/m2
09:03 32.5 °F 31.8 °F 30 in Calm     97% 0 in 21 W/m2
09:08 32.5 °F 31.8 °F 30 in Calm     97% 0 in 28 W/m2
09:13 32.5 °F 31.8 °F 30 in Calm     97% 0 in 25 W/m2
09:18 32.7 °F 32 °F 30 in Calm     97% 0 in 26 W/m2
09:23 32.9 °F 32.2 °F 30 in Calm     97% 0 in 26 W/m2
09:28 33.3 °F 32.5 °F 30 in East 0.9 mph 3 mph 97% 0 in 21 W/m2
09:33 33.6 °F 32.9 °F 30 in Calm     97% 0 in 23 W/m2
09:38 34 °F 33.3 °F 30 in Calm   2 mph 97% 0 in 28 W/m2
09:43 34.2 °F 33.4 °F 30 in NE 2 mph 3 mph 97% 0 in 35 W/m2
09:48 34.3 °F 33.6 °F 30 in East 0.9 mph 2 mph 97% 0 in 42 W/m2
09:53 34.5 °F 33.8 °F 30 in East 0.9 mph 3 mph 97% 0 in 37 W/m2
09:58 34.5 °F 33.8 °F 30 in ESE 2 mph 3 mph 97% 0 in 28 W/m2
10:03 34.5 °F 33.8 °F 30 in Calm   2 mph 97% 0 in 26 W/m2
10:08 34.7 °F 34 °F 30 in Calm   2 mph 97% 0 in 25 W/m2
10:13 34.9 °F 34.2 °F 30 in Calm   1 mph 97% 0 in 30 W/m2
10:18 34.9 °F 34.2 °F 30 in ESE 0.9 mph 4 mph 97% 0 in 35 W/m2
10:23 34.9 °F 34.2 °F 30 in SE 0.9 mph 2 mph 97% 0 in 32 W/m2
10:28 34.9 °F 34.2 °F 30 in Calm   4 mph 97% 0 in 33 W/m2
10:33 34.9 °F 34.2 °F 30 in ESE 2 mph 2 mph 97% 0 in 30 W/m2
10:38 34.9 °F 34.2 °F 30 in ESE 2.9 mph 3 mph 97% 0 in 44 W/m2
10:43 34.9 °F 34.2 °F 30 in ESE 0.9 mph 2 mph 97% 0 in 35 W/m2
10:48 34.9 °F 34.2 °F 30 in Calm   1 mph 97% 0 in 42 W/m2
10:53 34.9 °F 34.2 °F 30 in Calm   1 mph 97% 0 in 42 W/m2
10:58 34.9 °F 34.2 °F 30 in East 0.9 mph 1 mph 97% 0 in 44 W/m2
11:03 35.1 °F 34.3 °F 30 in Calm   3 mph 97% 0 in 54 W/m2
11:08 35.1 °F 34.3 °F 30 in West 0.9 mph 2 mph 97% 0 in 63 W/m2
11:13 35.1 °F 34.3 °F 30 in West 2 mph 3 mph 97% 0 in 56 W/m2
11:18 35.1 °F 34.3 °F 30 in West 2.9 mph 3 mph 97% 0 in 62 W/m2
11:23 35.1 °F 34.3 °F 30 in WSW 2 mph 3 mph 97% 0 in 67 W/m2
11:28 35.1 °F 34.3 °F 30 in WNW 2 mph 2 mph 97% 0 in 63 W/m2
11:33 35.1 °F 34.3 °F 30 in WNW 0.9 mph 3 mph 97% 0 in 70 W/m2
11:38 35.1 °F 34.3 °F 30 in NW 0.9 mph 4 mph 97% 0 in 74 W/m2
11:43 35.1 °F 34.3 °F 30 in WNW 2.9 mph 5 mph 97% 0 in 62 W/m2
11:48 35.1 °F 34.3 °F 30 in NW 2 mph 3 mph 97% 0 in 67 W/m2
11:53 35.2 °F 34.5 °F 30 in Calm   5 mph 97% 0 in 84 W/m2
11:58 35.2 °F 34.5 °F 30 in Calm     97% 0 in 79 W/m2
12:03 35.4 °F 34.7 °F 30 in Calm   4 mph 97% 0 in 93 W/m2
12:08 35.2 °F 34.5 °F 30 in Calm   2 mph 97% 0 in 116 W/m2
12:13 35.4 °F 34.7 °F 30 in WSW 2 mph 4 mph 97% 0 in 84 W/m2
12:18 35.4 °F 34.7 °F 30 in ESE 2 mph 6 mph 97% 0 in 95 W/m2
12:23 35.4 °F 34.7 °F 30 in WNW 2 mph 4 mph 97% 0 in 83 W/m2
12:28 35.4 °F 34.7 °F 30 in Calm   2 mph 97% 0 in 62 W/m2
12:33 35.6 °F 34.9 °F 30 in Calm   3 mph 97% 0 in 69 W/m2
12:38 35.6 °F 34.9 °F 30 in Calm   1 mph 97% 0 in 67 W/m2
12:43 35.8 °F 35.1 °F 30 in ENE 0.9 mph 3 mph 97% 0 in 74 W/m2
12:48 35.6 °F 34.9 °F 30 in WNW 0.9 mph 3 mph 97% 0 in 58 W/m2
12:53 35.4 °F 34.7 °F 30 in East 4 mph 6 mph 97% 0 in 56 W/m2
12:58 35.4 °F 34.7 °F 30 in ESE 0.9 mph 7 mph 97% 0 in 49 W/m2
13:03 35.4 °F 34.3 °F 30 in Calm     96% 0 in 42 W/m2
13:08 35.6 °F 34.5 °F 30 in Calm   7 mph 96% 0 in 37 W/m2
13:13 35.6 °F 34.5 °F 30 in SSW 0.9 mph 4 mph 96% 0 in 33 W/m2
13:18 35.4 °F 34.3 °F 30 in Calm   3 mph 96% 0 in 28 W/m2
13:23 35.6 °F 34.5 °F 30 in Calm   1 mph 96% 0 in 40 W/m2
13:28 35.8 °F 34.7 °F 30 in Calm   3 mph 96% 0 in 46 W/m2
13:33 35.8 °F 34.7 °F 30 in Calm     96% 0 in 44 W/m2
13:38 36 °F 34.9 °F 30 in Calm   2 mph 96% 0 in 72 W/m2
13:43 36.1 °F 35.1 °F 30 in Calm   1 mph 96% 0 in 118 W/m2
13:48 36.1 °F 35.1 °F 30 in NNW 0.9 mph 2 mph 96% 0 in 125 W/m2
13:58 36.9 °F 35.8 °F 30 in North 2 mph 2 mph 96% 0 in 65 W/m2
14:03 36.9 °F 35.6 °F 30 in ENE 2 mph 2 mph 95% 0 in 79 W/m2
14:08 37 °F 35.8 °F 30 in ENE 0.9 mph 2 mph 95% 0 in 81 W/m2
14:13 37.2 °F 36 °F 30 in Calm   1 mph 95% 0 in 51 W/m2
14:18 37.2 °F 35.6 °F 29.9 in Calm     94% 0 in 79 W/m2
14:23 37.4 °F 35.8 °F 30 in Calm     94% 0 in 60 W/m2
14:28 37.4 °F 35.8 °F 29.9 in Calm     94% 0 in 74 W/m2
14:33 37.6 °F 36 °F 29.9 in Calm     94% 0 in 84 W/m2
14:38 37.8 °F 36 °F 29.9 in Calm     93% 0 in 79 W/m2
14:43 37.8 °F 36 °F 29.9 in Calm     93% 0 in 74 W/m2
14:48 37.9 °F 36.1 °F 29.9 in Calm     93% 0 in 72 W/m2
14:53 38.1 °F 36.3 °F 29.9 in Calm     93% 0 in 79 W/m2
14:58 38.3 °F 36.5 °F 29.9 in Calm     93% 0 in 98 W/m2
15:03 38.5 °F 36.3 °F 29.9 in Calm   2 mph 92% 0 in 28 W/m2
15:08 38.5 °F 36.3 °F 29.9 in Calm   1 mph 92% 0 in 25 W/m2
15:13 38.5 °F 36.3 °F 29.9 in Calm   2 mph 92% 0 in 21 W/m2
15:18 38.5 °F 36.3 °F 29.9 in Calm     92% 0 in 11 W/m2
15:23 38.3 °F 36.1 °F 29.9 in Calm   1 mph 92% 0 in 21 W/m2
15:28 38.3 °F 36.1 °F 29.9 in Calm     92% 0 in 12 W/m2
15:33 38.3 °F 36.1 °F 29.9 in East 0.9 mph 2 mph 92% 0 in 23 W/m2
15:38 38.5 °F 36.3 °F 29.9 in East 2 mph 2 mph 92% 0 in 21 W/m2
15:43 38.5 °F 36.7 °F 29.9 in Calm     93% 0 in 16 W/m2
15:48 38.5 °F 36.7 °F 29.9 in Calm   1 mph 93% 0 in 23 W/m2
15:53 38.5 °F 36.7 °F 29.9 in Calm   1 mph 93% 0 in 23 W/m2
15:58 38.5 °F 36.7 °F 29.9 in East 0.9 mph 2 mph 93% 0 in 19 W/m2
16:03 38.5 °F 36.7 °F 29.9 in Calm   1 mph 93% 0 in 16 W/m2
16:08 38.5 °F 36.7 °F 29.9 in East 2 mph 2 mph 93% 0 in 14 W/m2
Juneau County Weather
Compliments of Weather Underground - 2 mb